LEZL

Sevilla Airport

Sevilla, Spain
TAF LEZL 210200Z 2103/2203 06011KT 9999 FEW030 TX26/2115Z TN14/2106Z PROB30 TEMPO 2103/2105 4000 SHRA SCT030CB SCT040 PROB30 TEMPO 2103/2105 3000 TS SCT025CB BECMG 2108/2110 VRB03KT
Issued Valid From Valid To
Apr-21 @ 02:00 UTC
(2 hours ago)
Apr-21 @ 03:00 UTC
(an hour ago)
Apr-22 @ 03:00 UTC
(in 23 hours)
Apr-21 @ 03:00 to Apr-21 @ 08:00
TAF LEZL 210200Z 2103/2203 06011KT 9999 FEW030 TX26/2115Z TN14/2106Z
Wind Visibility Clouds
60° at 11 knots 10,000+ meters
  • Few at 3,000' AGL
Temporary  (Probability 30%) Apr-21 @ 03:00 to Apr-21 @ 05:00
PROB30 TEMPO 2103/2105 3000 TS SCT025CB
Visibility Clouds Conditions
4,007 meters
  • Scattered at 3,000' AGL
  • Scattered at 4,000' AGL
  • Rain
Temporary  (Probability 30%) Apr-21 @ 03:00 to Apr-21 @ 05:00
PROB30 TEMPO 2103/2105 3000 TS SCT025CB
Visibility Clouds Conditions
2,993 meters
  • Scattered at 2,500' AGL
  • Thunderstorm
Becoming Apr-21 @ 08:00 to Apr-22 @ 03:00
BECMG 2108/2110 VRB03KT
Wind Visibility Clouds
Variable at 3 knots 10,000+ meters
  • Few at 3,000' AGL
TAF LEZL 210200Z 2103/2203 06011KT 9999 FEW030 TX26/2115Z TN14/2106Z PROB30 TEMPO 2103/2105 4000 SHRA SCT030CB SCT040 PROB30 TEMPO 2103/2105 3000 TS SCT025CB BECMG 2108/2110 VRB03KT
Issued Apr-21 @ 02:00 UTC
(2 hours ago)
Valid From Apr-21 @ 03:00 UTC
(an hour ago)
Valid To Apr-22 @ 03:00 UTC
(in 23 hours)
Apr-21 @ 03:00 - Apr-21 @ 08:00
Wind Visibility
60° at 11 knots 10,000+ meters
Clouds
  • Few at 3,000' AGL
Probability 30% Temporary Apr-21 @ 03:00 - Apr-21 @ 05:00
Clouds
  • Scattered at 3,000' AGL
  • Scattered at 4,000' AGL
Conditions
  • Rain
Probability 30% Temporary Apr-21 @ 03:00 - Apr-21 @ 05:00
Clouds
  • Scattered at 2,500' AGL
Conditions
  • Thunderstorm
Becoming Apr-21 @ 08:00 - Apr-22 @ 03:00
Wind Visibility
Variable at 3 knots 10,000+ meters
Clouds
  • Few at 3,000' AGL